createdAt,value
2018-03-28T00:02:25.329Z,76.23
2018-03-28T00:04:54.605Z,76.76
2018-03-28T00:07:23.552Z,77.12
2018-03-28T00:09:52.797Z,73.36
2018-03-28T00:12:21.997Z,74.23
2018-03-28T00:14:50.727Z,73.59
2018-03-28T00:17:19.350Z,73.65
2018-03-28T00:19:49.098Z,74.99
2018-03-28T00:22:18.234Z,75.08
2018-03-28T00:24:48.272Z,77.24
2018-03-28T00:27:17.272Z,77.89
2018-03-28T00:29:46.005Z,76.76
2018-03-28T00:32:15.012Z,75.98
2018-03-28T00:34:43.746Z,75.72
2018-03-28T00:37:12.389Z,76.42
2018-03-28T00:39:41.955Z,76.34
2018-03-28T00:42:12.356Z,76.56
2018-03-28T00:44:41.861Z,76.63
2018-03-28T00:47:11.045Z,76.85
2018-03-28T00:49:40.780Z,76.30
2018-03-28T00:52:09.896Z,76.62
2018-03-28T00:54:38.493Z,76.53
2018-03-28T00:57:07.299Z,77.51
2018-03-28T00:59:36.492Z,75.23
2018-03-28T01:02:05.763Z,74.88
2018-03-28T01:04:35.174Z,73.68
2018-03-28T01:07:04.689Z,73.88
2018-03-28T01:09:34.127Z,75.20
2018-03-28T01:12:04.059Z,75.14
2018-03-28T01:14:33.829Z,75.51
2018-03-28T01:17:02.662Z,75.20
2018-03-28T01:19:32.444Z,75.63
2018-03-28T01:22:01.088Z,76.00
2018-03-28T01:24:30.123Z,76.59
2018-03-28T01:26:58.910Z,77.26
2018-03-28T01:29:29.796Z,78.08
2018-03-28T01:31:58.841Z,77.59
2018-03-28T01:34:29.872Z,77.20
2018-03-28T01:36:58.903Z,77.07
2018-03-28T01:39:27.990Z,76.87
2018-03-28T01:41:57.019Z,76.76
2018-03-28T01:44:25.726Z,77.17
2018-03-28T01:46:54.634Z,78.57
2018-03-28T01:49:24.256Z,77.53
2018-03-28T01:51:53.300Z,77.48
2018-03-28T01:54:22.725Z,76.96
2018-03-28T01:56:51.355Z,77.08
2018-03-28T01:59:19.928Z,76.29
2018-03-28T02:01:49.107Z,76.08
2018-03-28T02:04:19.603Z,75.81
2018-03-28T02:06:48.926Z,75.68
2018-03-28T02:09:18.410Z,75.49
2018-03-28T02:11:47.916Z,75.33
2018-03-28T02:14:16.637Z,75.17
2018-03-28T02:16:45.987Z,75.01
2018-03-28T02:19:15.095Z,74.95
2018-03-28T02:21:44.195Z,75.08
2018-03-28T02:24:13.844Z,75.48
2018-03-28T02:26:42.947Z,75.49
2018-03-28T02:29:12.728Z,76.52
2018-03-28T02:31:43.143Z,76.68
2018-03-28T02:34:11.945Z,76.63
2018-03-28T02:36:41.068Z,76.41
2018-03-28T02:39:10.986Z,76.23
2018-03-28T02:41:40.828Z,76.14
2018-03-28T02:44:09.468Z,77.97
2018-03-28T02:46:38.128Z,77.40
2018-03-28T02:49:06.753Z,77.31
2018-03-28T02:51:35.845Z,77.00
2018-03-28T02:54:04.536Z,77.40
2018-03-28T02:56:34.261Z,78.43
2018-03-28T02:59:04.499Z,78.79
2018-03-28T03:01:33.993Z,79.43
2018-03-28T03:04:02.780Z,79.14
2018-03-28T03:06:31.587Z,79.00
2018-03-28T03:09:00.631Z,79.06
2018-03-28T03:11:29.952Z,79.29
2018-03-28T03:13:59.108Z,80.09
2018-03-28T03:16:29.099Z,80.52
2018-03-28T03:18:59.218Z,80.87
2018-03-28T03:21:27.754Z,80.93
2018-03-28T03:23:56.364Z,80.59
2018-03-28T03:26:25.322Z,80.51
2018-03-28T03:28:55.258Z,80.30
2018-03-28T03:31:25.230Z,80.12
2018-03-28T03:33:53.890Z,79.98
2018-03-28T03:36:22.830Z,79.73
2018-03-28T03:38:51.472Z,79.71
2018-03-28T03:41:20.917Z,79.90
2018-03-28T03:43:49.455Z,79.84
2018-03-28T03:46:18.119Z,79.88
2018-03-28T03:48:47.302Z,79.91
2018-03-28T03:51:16.095Z,79.83
2018-03-28T03:53:44.936Z,80.06
2018-03-28T03:56:14.363Z,80.35
2018-03-28T03:58:43.721Z,79.97
2018-03-28T04:01:12.691Z,79.93
2018-03-28T04:03:41.254Z,81.07
2018-03-28T04:06:10.547Z,82.06
2018-03-28T04:08:39.344Z,82.77
2018-03-28T04:11:08.517Z,83.63
2018-03-28T04:13:37.116Z,83.52
2018-03-28T04:16:06.585Z,83.57
2018-03-28T04:18:36.082Z,83.60
2018-03-28T04:21:05.014Z,83.54
2018-03-28T04:23:33.589Z,83.32
2018-03-28T04:26:02.371Z,83.19
2018-03-28T04:28:31.116Z,82.98
2018-03-28T04:31:00.015Z,83.65
2018-03-28T04:33:28.707Z,84.02
2018-03-28T04:35:58.885Z,83.76
2018-03-28T04:38:28.063Z,83.55
2018-03-28T04:40:57.246Z,83.42
2018-03-28T04:43:26.234Z,83.09
2018-03-28T04:45:55.297Z,82.97
2018-03-28T04:48:25.047Z,82.78
2018-03-28T04:50:54.418Z,82.80
2018-03-28T04:53:23.321Z,82.52
2018-03-28T04:55:52.200Z,82.46
2018-03-28T04:58:21.911Z,82.73
2018-03-28T05:00:52.007Z,82.50
2018-03-28T05:03:21.899Z,82.29
2018-03-28T05:05:50.933Z,82.09
2018-03-28T05:08:20.497Z,82.08
2018-03-28T05:10:49.165Z,82.01
2018-03-28T05:13:17.866Z,82.25
2018-03-28T05:15:49.205Z,82.40
2018-03-28T05:18:18.347Z,82.52
2018-03-28T05:20:47.906Z,82.24
2018-03-28T05:23:17.512Z,82.08
2018-03-28T05:25:47.955Z,81.79
2018-03-28T05:28:17.153Z,81.62
2018-03-28T05:30:46.774Z,81.49
2018-03-28T05:33:16.240Z,81.42
2018-03-28T05:35:45.005Z,81.11
2018-03-28T05:38:15.746Z,80.92
2018-03-28T05:40:44.954Z,80.89
2018-03-28T05:43:14.077Z,80.90
2018-03-28T05:45:43.001Z,80.96
2018-03-28T05:48:12.787Z,80.86
2018-03-28T05:50:41.723Z,80.63
2018-03-28T05:53:10.484Z,80.60
2018-03-28T05:55:39.333Z,80.67
2018-03-28T05:58:08.721Z,80.66
2018-03-28T06:00:38.167Z,80.41
2018-03-28T06:03:07.190Z,80.17
2018-03-28T06:05:36.413Z,80.11
2018-03-28T06:08:05.829Z,79.89
2018-03-28T06:10:35.799Z,79.48
2018-03-28T06:13:04.668Z,78.88
2018-03-28T06:15:34.214Z,79.04
2018-03-28T06:18:03.867Z,78.75
2018-03-28T06:20:33.061Z,77.13
2018-03-28T06:23:02.047Z,75.60
2018-03-28T06:25:30.938Z,75.97
2018-03-28T06:27:59.667Z,73.38
2018-03-28T06:30:30.003Z,73.43
2018-03-28T06:32:58.811Z,72.84
2018-03-28T06:35:28.061Z,72.69
2018-03-28T06:37:58.505Z,71.96
2018-03-28T06:40:29.051Z,70.58
2018-03-28T06:42:57.891Z,71.31
2018-03-28T06:45:27.827Z,70.84
2018-03-28T06:48:00.330Z,71.38
2018-03-28T06:50:30.310Z,71.74
2018-03-28T06:52:59.209Z,72.16
2018-03-28T06:55:28.807Z,71.74
2018-03-28T06:57:57.888Z,67.29
2018-03-28T07:00:27.500Z,66.95
2018-03-28T07:02:56.714Z,63.46
2018-03-28T07:05:28.375Z,62.76
2018-03-28T07:07:57.106Z,64.82
2018-03-28T07:10:26.749Z,61.97
2018-03-28T07:12:55.740Z,62.83
2018-03-28T07:15:25.091Z,66.09
2018-03-28T07:17:54.411Z,67.93
2018-03-28T07:20:23.551Z,69.05
2018-03-28T07:22:52.473Z,69.05
2018-03-28T07:25:22.800Z,67.76
2018-03-28T07:27:53.175Z,62.65
2018-03-28T07:30:22.501Z,64.07
2018-03-28T07:32:52.498Z,65.82
2018-03-28T07:35:21.442Z,65.88
2018-03-28T07:37:51.429Z,63.73
2018-03-28T07:40:21.173Z,61.25
2018-03-28T07:42:50.250Z,60.16
2018-03-28T07:45:18.990Z,58.21
2018-03-28T07:47:47.770Z,59.24
2018-03-28T07:50:17.419Z,59.71
2018-03-28T07:52:46.547Z,60.88
2018-03-28T07:55:17.231Z,59.71
2018-03-28T07:57:48.136Z,53.38
2018-03-28T08:00:17.026Z,56.44
2018-03-28T08:02:45.749Z,54.64
2018-03-28T08:05:15.473Z,50.19
2018-03-28T08:07:44.907Z,45.47
2018-03-28T08:10:13.568Z,47.49
2018-03-28T08:12:43.655Z,51.31
2018-03-28T08:15:12.486Z,48.51
2018-03-28T08:17:41.523Z,47.76
2018-03-28T08:20:10.352Z,48.82
2018-03-28T08:22:40.782Z,52.61
2018-03-28T08:25:10.517Z,52.70
2018-03-28T08:27:40.472Z,54.57
2018-03-28T08:30:09.267Z,49.60
2018-03-28T08:32:38.814Z,49.13
2018-03-28T08:35:08.073Z,45.36
2018-03-28T08:37:36.705Z,47.23
2018-03-28T08:40:05.382Z,46.07
2018-03-28T08:42:33.953Z,46.95
2018-03-28T08:45:03.599Z,42.33
2018-03-28T08:47:34.001Z,39.30
2018-03-28T08:50:03.309Z,37.13
2018-03-28T08:52:32.876Z,38.14
2018-03-28T08:55:02.054Z,39.38
2018-03-28T08:57:30.794Z,41.24
2018-03-28T08:59:59.496Z,45.07
2018-03-28T09:02:28.992Z,42.94
2018-03-28T09:04:58.033Z,40.94
2018-03-28T09:07:28.302Z,38.48
2018-03-28T09:09:57.529Z,35.47
2018-03-28T09:12:26.244Z,36.32
2018-03-28T09:14:55.290Z,35.11
2018-03-28T09:17:25.526Z,33.59
2018-03-28T09:19:55.707Z,33.79
2018-03-28T09:22:25.223Z,33.74
2018-03-28T09:24:54.629Z,31.93
2018-03-28T09:27:23.553Z,36.90
2018-03-28T09:29:53.435Z,34.44
2018-03-28T09:32:23.702Z,32.24
2018-03-28T09:34:52.551Z,32.20
2018-03-28T09:37:21.541Z,28.34
2018-03-28T09:39:50.676Z,34.95
2018-03-28T09:42:21.542Z,42.72
2018-03-28T09:44:52.846Z,42.38
2018-03-28T09:47:22.176Z,38.19
2018-03-28T09:49:51.276Z,35.62
2018-03-28T09:52:20.206Z,35.31
2018-03-28T09:54:50.417Z,38.53
2018-03-28T09:57:19.332Z,36.00
2018-03-28T09:59:49.028Z,31.97
2018-03-28T10:02:18.650Z,29.34
2018-03-28T10:04:50.213Z,34.54
2018-03-28T10:07:20.726Z,33.19
2018-03-28T10:09:49.672Z,33.39
2018-03-28T10:12:19.024Z,30.94
2018-03-28T10:14:48.378Z,28.46
2018-03-28T10:17:19.053Z,27.70
2018-03-28T10:19:47.791Z,29.68
2018-03-28T10:22:17.356Z,27.31
2018-03-28T10:24:46.476Z,27.27
2018-03-28T10:27:15.196Z,26.07
2018-03-28T10:29:45.327Z,35.98
2018-03-28T10:32:14.676Z,33.17
2018-03-28T10:34:44.288Z,28.34
2018-03-28T10:37:13.439Z,25.82
2018-03-28T10:39:43.310Z,25.04
2018-03-28T10:42:11.874Z,26.38
2018-03-28T10:44:40.942Z,28.57
2018-03-28T10:47:10.075Z,37.15
2018-03-28T10:49:39.193Z,39.49
2018-03-28T10:52:07.946Z,33.71
2018-03-28T10:54:37.718Z,30.78
2018-03-28T10:57:07.531Z,32.91
2018-03-28T10:59:36.385Z,30.05
2018-03-28T11:02:06.318Z,29.12
2018-03-28T11:04:38.682Z,28.14
2018-03-28T11:07:08.110Z,28.35
2018-03-28T11:09:36.903Z,28.90
2018-03-28T11:12:05.964Z,32.18
2018-03-28T11:14:34.668Z,30.87
2018-03-28T11:17:04.125Z,30.39
2018-03-28T11:19:33.644Z,27.57
2018-03-28T11:22:02.302Z,26.12
2018-03-28T11:24:31.069Z,25.05
2018-03-28T11:27:02.619Z,22.57
2018-03-28T11:29:32.175Z,23.19
2018-03-28T11:32:01.268Z,22.53
2018-03-28T11:34:30.745Z,29.72
2018-03-28T11:36:59.497Z,32.43
2018-03-28T11:39:28.726Z,32.55
2018-03-28T11:41:57.658Z,35.15
2018-03-28T11:44:26.443Z,34.48
2018-03-28T11:46:55.466Z,31.36
2018-03-28T11:49:26.216Z,29.69
2018-03-28T11:51:55.202Z,29.76
2018-03-28T11:54:23.961Z,32.39
2018-03-28T11:56:55.871Z,30.19
2018-03-28T11:59:25.635Z,30.69
2018-03-28T12:01:54.706Z,33.14
2018-03-28T12:04:23.969Z,28.62
2018-03-28T12:06:52.662Z,25.92
2018-03-28T12:09:21.825Z,26.56
2018-03-28T12:11:50.666Z,31.91
2018-03-28T12:14:19.587Z,29.19
2018-03-28T12:16:48.746Z,26.08
2018-03-28T12:19:18.309Z,23.87
2018-03-28T12:21:47.516Z,24.42
2018-03-28T12:24:17.589Z,24.12
2018-03-28T12:26:47.914Z,25.18
2018-03-28T12:29:17.217Z,24.22
2018-03-28T12:31:45.871Z,23.96
2018-03-28T12:34:15.213Z,23.22
2018-03-28T12:36:44.257Z,23.14
2018-03-28T12:39:13.574Z,24.08
2018-03-28T12:44:35.281Z,24.89
2018-03-28T12:47:05.318Z,24.57
2018-03-28T12:49:33.934Z,24.48
2018-03-28T12:52:02.746Z,24.25
2018-03-28T12:54:31.390Z,26.61
2018-03-28T12:59:53.939Z,30.47
2018-03-28T13:02:23.421Z,28.64
2018-03-28T13:04:52.109Z,29.51
2018-03-28T13:07:21.141Z,31.30
2018-03-28T13:09:49.780Z,30.08
2018-03-28T13:12:20.823Z,29.27
2018-03-28T13:14:50.477Z,30.22
2018-03-28T13:17:21.096Z,30.97
2018-03-28T13:19:49.772Z,33.28
2018-03-28T13:22:22.151Z,31.78
2018-03-28T13:24:51.713Z,32.06
2018-03-28T13:27:20.538Z,32.32
2018-03-28T13:29:49.150Z,33.09
2018-03-28T13:32:17.898Z,32.14
2018-03-28T13:34:47.343Z,34.81
2018-03-28T13:37:16.361Z,34.09
2018-03-28T13:39:45.057Z,32.22
2018-03-28T13:42:14.803Z,30.54
2018-03-28T13:44:43.821Z,30.36
2018-03-28T13:47:12.479Z,29.87
2018-03-28T13:49:41.147Z,29.14
2018-03-28T13:52:09.778Z,30.42
2018-03-28T13:54:38.388Z,32.95
2018-03-28T13:57:06.983Z,32.75
2018-03-28T13:59:35.644Z,34.35
2018-03-28T14:02:04.323Z,34.43
2018-03-28T14:04:33.727Z,35.41
2018-03-28T14:07:02.775Z,35.09
2018-03-28T14:09:32.284Z,37.25
2018-03-28T14:12:01.070Z,37.23
2018-03-28T14:14:30.365Z,36.08
2018-03-28T14:16:59.617Z,36.73
2018-03-28T14:19:28.303Z,37.05
2018-03-28T14:21:57.717Z,37.70
2018-03-28T14:24:26.377Z,38.18
2018-03-28T14:26:55.797Z,38.61
2018-03-28T14:29:24.614Z,37.28
2018-03-28T14:31:54.070Z,38.64
2018-03-28T14:34:23.279Z,36.04
2018-03-28T14:36:51.931Z,37.13
2018-03-28T14:39:20.524Z,36.35
2018-03-28T14:41:49.198Z,34.71
2018-03-28T14:44:18.394Z,34.44
2018-03-28T14:46:47.630Z,34.93
2018-03-28T14:49:17.175Z,34.47
2018-03-28T14:51:45.800Z,35.02
2018-03-28T14:54:14.585Z,36.32
2018-03-28T14:56:43.201Z,35.82
2018-03-28T14:59:12.769Z,36.83
2018-03-28T15:01:41.457Z,37.90
2018-03-28T15:04:10.125Z,37.78
2018-03-28T15:06:38.893Z,37.09
2018-03-28T15:09:08.741Z,36.50
2018-03-28T15:11:38.115Z,36.11
2018-03-28T15:14:07.122Z,35.98
2018-03-28T15:16:37.447Z,36.19
2018-03-28T15:19:06.266Z,37.33
2018-03-28T15:21:34.936Z,37.27
2018-03-28T15:24:04.413Z,36.42
2018-03-28T15:26:33.217Z,37.03
2018-03-28T15:29:02.282Z,36.67
2018-03-28T15:31:30.998Z,35.73
2018-03-28T15:33:59.669Z,35.49
2018-03-28T15:36:28.434Z,35.13
2018-03-28T15:38:57.245Z,34.95
2018-03-28T15:41:26.494Z,35.28
2018-03-28T15:43:55.373Z,33.96
2018-03-28T15:46:24.837Z,35.23
2018-03-28T15:48:54.682Z,36.88
2018-03-28T15:51:23.461Z,40.19
2018-03-28T15:53:52.341Z,41.82
2018-03-28T15:56:22.320Z,41.73
2018-03-28T15:58:51.357Z,43.41
2018-03-28T16:01:20.262Z,45.42
2018-03-28T16:03:49.412Z,46.78
2018-03-28T16:06:19.084Z,47.53
2018-03-28T16:08:47.980Z,47.96
2018-03-28T16:11:17.102Z,48.23
2018-03-28T16:13:46.477Z,48.80
2018-03-28T16:16:16.742Z,48.90
2018-03-28T16:18:47.347Z,49.17
2018-03-28T16:21:17.668Z,49.72
2018-03-28T16:23:46.725Z,49.78
2018-03-28T16:26:19.191Z,50.21
2018-03-28T16:28:48.257Z,50.25
2018-03-28T16:31:17.655Z,49.94
2018-03-28T16:33:47.484Z,50.48
2018-03-28T16:36:16.837Z,51.28
2018-03-28T16:38:46.048Z,52.38
2018-03-28T16:41:16.319Z,53.21
2018-03-28T16:43:45.325Z,53.35
2018-03-28T16:46:14.231Z,53.27
2018-03-28T16:48:44.010Z,53.21
2018-03-28T16:51:13.046Z,53.32
2018-03-28T16:53:42.085Z,53.30
2018-03-28T16:56:11.352Z,53.95
2018-03-28T16:58:40.379Z,54.25
2018-03-28T17:01:09.480Z,55.15
2018-03-28T17:03:38.555Z,55.88
2018-03-28T17:06:08.454Z,56.69
2018-03-28T17:08:38.110Z,57.06
2018-03-28T17:11:08.454Z,57.40
2018-03-28T17:13:38.208Z,58.34
2018-03-28T17:16:07.289Z,58.16
2018-03-28T17:18:36.417Z,58.60
2018-03-28T17:21:05.475Z,59.01
2018-03-28T17:23:34.637Z,59.39
2018-03-28T17:26:04.510Z,59.47
2018-03-28T17:28:33.619Z,60.12
2018-03-28T17:31:03.559Z,60.37
2018-03-28T17:33:33.087Z,60.73
2018-03-28T17:36:02.621Z,61.14
2018-03-28T17:38:32.135Z,61.98
2018-03-28T17:41:01.320Z,62.32
2018-03-28T17:43:30.459Z,62.85
2018-03-28T17:45:59.431Z,63.04
2018-03-28T17:48:28.543Z,63.60
2018-03-28T17:50:57.851Z,64.33
2018-03-28T17:53:27.228Z,65.12
2018-03-28T17:55:56.205Z,65.49
2018-03-28T17:58:25.301Z,65.94
2018-03-28T18:00:54.548Z,66.22
2018-03-28T18:03:24.398Z,66.58
2018-03-28T18:05:53.977Z,66.86
2018-03-28T18:08:24.266Z,66.84
2018-03-28T18:10:54.166Z,66.99
2018-03-28T18:13:23.448Z,67.30
2018-03-28T18:15:52.487Z,67.18
2018-03-28T18:18:22.415Z,67.25
2018-03-28T18:20:51.373Z,67.22
2018-03-28T18:23:20.312Z,67.79
2018-03-28T18:25:50.770Z,68.14
2018-03-28T18:28:20.049Z,68.31
2018-03-28T18:30:49.677Z,68.38
2018-03-28T18:33:19.413Z,68.42
2018-03-28T18:35:50.474Z,68.86
2018-03-28T18:38:19.984Z,68.50
2018-03-28T18:40:49.013Z,68.76
2018-03-28T18:43:18.003Z,69.30
2018-03-28T18:45:47.006Z,69.42
2018-03-28T18:48:15.917Z,69.11
2018-03-28T18:50:44.856Z,69.76
2018-03-28T18:53:14.906Z,70.50
2018-03-28T18:55:44.029Z,70.05
2018-03-28T18:58:14.530Z,70.26
2018-03-28T19:00:44.130Z,70.14
2018-03-28T19:03:13.241Z,70.35
2018-03-28T19:05:43.045Z,70.76
2018-03-28T19:08:13.440Z,70.88
2018-03-28T19:10:42.667Z,71.19
2018-03-28T19:13:12.232Z,71.09
2018-03-28T19:15:43.016Z,71.35
2018-03-28T19:18:12.749Z,71.51
2018-03-28T19:20:41.767Z,71.58
2018-03-28T19:23:14.224Z,71.86
2018-03-28T19:25:43.510Z,72.15
2018-03-28T19:28:13.354Z,72.61
2018-03-28T19:30:42.518Z,72.81
2018-03-28T19:33:12.353Z,73.25
2018-03-28T19:35:42.166Z,73.04
2018-03-28T19:38:11.027Z,72.44
2018-03-28T19:40:40.028Z,72.39
2018-03-28T19:43:09.298Z,71.49
2018-03-28T19:45:38.333Z,72.08
2018-03-28T19:48:07.370Z,72.14
2018-03-28T19:50:38.185Z,72.27
2018-03-28T19:53:07.569Z,72.17
2018-03-28T19:55:36.840Z,72.25
2018-03-28T19:58:05.978Z,72.21
2018-03-28T20:00:35.284Z,72.40
2018-03-28T20:03:05.259Z,72.55
2018-03-28T20:05:34.570Z,72.90
2018-03-28T20:08:05.517Z,72.89
2018-03-28T20:10:34.552Z,73.22
2018-03-28T20:13:04.828Z,73.29
2018-03-28T20:15:34.893Z,73.52
2018-03-28T20:18:05.041Z,73.63
2018-03-28T20:20:34.812Z,73.75
2018-03-28T20:23:04.269Z,73.77
2018-03-28T20:25:33.642Z,73.75
2018-03-28T20:28:02.917Z,74.35
2018-03-28T20:30:31.924Z,74.76
2018-03-28T20:33:01.000Z,74.84
2018-03-28T20:35:30.233Z,74.83
2018-03-28T20:37:59.385Z,75.01
2018-03-28T20:40:28.576Z,74.71
2018-03-28T20:42:59.464Z,74.08
2018-03-28T20:45:29.389Z,73.26
2018-03-28T20:47:59.805Z,72.88
2018-03-28T20:50:29.081Z,72.93
2018-03-28T20:52:58.867Z,73.37
2018-03-28T20:55:28.612Z,73.77
2018-03-28T20:57:58.142Z,73.91
2018-03-28T21:00:27.674Z,73.78
2018-03-28T21:02:56.826Z,74.12
2018-03-28T21:05:26.920Z,74.73
2018-03-28T21:07:56.301Z,75.09
2018-03-28T21:10:26.658Z,75.24
2018-03-28T21:12:55.538Z,75.64
2018-03-28T21:15:25.107Z,75.53
2018-03-28T21:17:53.936Z,75.68
2018-03-28T21:20:24.055Z,75.67
2018-03-28T21:22:53.262Z,75.37
2018-03-28T21:25:22.691Z,75.24
2018-03-28T21:27:52.571Z,75.38
2018-03-28T21:30:21.576Z,75.67
2018-03-28T21:32:50.549Z,75.80
2018-03-28T21:35:20.440Z,75.99
2018-03-28T21:37:50.785Z,75.94
2018-03-28T21:40:20.241Z,75.80
2018-03-28T21:42:48.930Z,75.40
2018-03-28T21:45:18.313Z,75.22
2018-03-28T21:47:48.173Z,74.96
2018-03-28T21:50:17.722Z,75.20
2018-03-28T21:52:46.666Z,74.99
2018-03-28T21:55:16.110Z,74.84
2018-03-28T21:57:45.190Z,74.57
2018-03-28T22:00:14.927Z,74.65
2018-03-28T22:02:44.655Z,74.69
2018-03-28T22:05:16.774Z,73.93
2018-03-28T22:07:45.732Z,74.05
2018-03-28T22:10:14.480Z,73.30
2018-03-28T22:12:43.226Z,72.73
2018-03-28T22:15:13.534Z,73.17
2018-03-28T22:17:42.198Z,72.83
2018-03-28T22:20:15.668Z,72.65
2018-03-28T22:22:44.245Z,73.25
2018-03-28T22:25:13.483Z,72.76
2018-03-28T22:27:44.521Z,72.67
2018-03-28T22:30:15.536Z,72.94
2018-03-28T22:32:45.113Z,72.01
2018-03-28T22:35:13.776Z,71.99
2018-03-28T22:37:43.183Z,71.78
2018-03-28T22:40:13.048Z,71.49
2018-03-28T22:42:41.975Z,71.27
2018-03-28T22:45:10.807Z,71.72
2018-03-28T22:47:40.549Z,71.76
2018-03-28T22:50:09.271Z,71.62
2018-03-28T22:52:40.213Z,72.27
2018-03-28T22:55:10.164Z,72.54
2018-03-28T22:57:39.415Z,71.90
2018-03-28T23:00:08.300Z,71.28
2018-03-28T23:02:38.302Z,70.96
2018-03-28T23:05:07.178Z,71.22
2018-03-28T23:07:35.796Z,71.16
2018-03-28T23:10:04.625Z,71.13
2018-03-28T23:12:33.789Z,70.87
2018-03-28T23:15:02.459Z,71.18
2018-03-28T23:17:32.070Z,70.97
2018-03-28T23:20:02.118Z,70.84
2018-03-28T23:22:39.916Z,71.04
2018-03-28T23:25:09.007Z,71.52
2018-03-28T23:27:38.026Z,71.88
2018-03-28T23:30:07.368Z,72.04
2018-03-28T23:32:36.727Z,72.04
2018-03-28T23:35:05.818Z,72.36
2018-03-28T23:37:34.666Z,72.83
2018-03-28T23:40:05.006Z,73.23
2018-03-28T23:42:34.663Z,73.27
2018-03-28T23:45:04.911Z,73.57
2018-03-28T23:47:33.883Z,73.74
2018-03-28T23:50:02.473Z,74.23
2018-03-28T23:52:31.676Z,74.38
2018-03-28T23:55:00.266Z,74.38
2018-03-28T23:57:29.034Z,74.64
2018-03-28T23:59:58.295Z,74.56
